sensor_id;sensor_type;location;lat;lon;timestamp;P1;durP1;ratioP1;P2;durP2;ratioP2
11588;SDS011;5850;51.360;12.362;2023-07-30T00:00:42;3.80;;;3.50;;
11588;SDS011;5850;51.360;12.362;2023-07-30T00:03:11;3.77;;;3.43;;
11588;SDS011;5850;51.360;12.362;2023-07-30T00:05:39;4.07;;;3.37;;
11588;SDS011;5850;51.360;12.362;2023-07-30T00:08:07;4.00;;;3.60;;
11588;SDS011;5850;51.360;12.362;2023-07-30T00:10:36;6.37;;;3.37;;
11588;SDS011;5850;51.360;12.362;2023-07-30T00:13:04;3.93;;;3.53;;
11588;SDS011;5850;51.360;12.362;2023-07-30T00:15:32;6.07;;;3.40;;
11588;SDS011;5850;51.360;12.362;2023-07-30T00:18:00;4.97;;;3.97;;
11588;SDS011;5850;51.360;12.362;2023-07-30T00:20:29;6.33;;;3.57;;
11588;SDS011;5850;51.360;12.362;2023-07-30T00:22:57;3.97;;;3.53;;
11588;SDS011;5850;51.360;12.362;2023-07-30T00:25:25;4.67;;;3.77;;
11588;SDS011;5850;51.360;12.362;2023-07-30T00:27:54;5.90;;;3.10;;
11588;SDS011;5850;51.360;12.362;2023-07-30T00:30:22;4.10;;;3.70;;
11588;SDS011;5850;51.360;12.362;2023-07-30T00:32:51;5.13;;;4.00;;
11588;SDS011;5850;51.360;12.362;2023-07-30T00:35:19;3.73;;;3.40;;
11588;SDS011;5850;51.360;12.362;2023-07-30T00:37:48;3.90;;;3.50;;
11588;SDS011;5850;51.360;12.362;2023-07-30T00:40:17;3.37;;;3.07;;
11588;SDS011;5850;51.360;12.362;2023-07-30T00:42:46;4.00;;;3.60;;
11588;SDS011;5850;51.360;12.362;2023-07-30T00:45:14;4.00;;;3.20;;
11588;SDS011;5850;51.360;12.362;2023-07-30T00:47:42;4.03;;;3.30;;
11588;SDS011;5850;51.360;12.362;2023-07-30T00:50:11;6.33;;;3.50;;
11588;SDS011;5850;51.360;12.362;2023-07-30T00:52:42;3.93;;;3.50;;
11588;SDS011;5850;51.360;12.362;2023-07-30T00:55:11;3.47;;;3.07;;
11588;SDS011;5850;51.360;12.362;2023-07-30T00:57:39;4.47;;;3.83;;
11588;SDS011;5850;51.360;12.362;2023-07-30T01:00:09;5.67;;;3.80;;
11588;SDS011;5850;51.360;12.362;2023-07-30T01:02:38;3.23;;;2.93;;
11588;SDS011;5850;51.360;12.362;2023-07-30T01:05:06;6.23;;;3.53;;
11588;SDS011;5850;51.360;12.362;2023-07-30T01:07:34;3.43;;;3.10;;
11588;SDS011;5850;51.360;12.362;2023-07-30T01:10:03;3.90;;;3.40;;
11588;SDS011;5850;51.360;12.362;2023-07-30T01:12:31;4.10;;;3.23;;
11588;SDS011;5850;51.360;12.362;2023-07-30T01:15:01;3.90;;;3.50;;
11588;SDS011;5850;51.360;12.362;2023-07-30T01:17:31;5.07;;;3.40;;
11588;SDS011;5850;51.360;12.362;2023-07-30T01:20:00;4.20;;;3.30;;
11588;SDS011;5850;51.360;12.362;2023-07-30T01:22:28;4.40;;;3.70;;
11588;SDS011;5850;51.360;12.362;2023-07-30T01:24:56;4.00;;;3.10;;
11588;SDS011;5850;51.360;12.362;2023-07-30T01:27:28;4.67;;;3.60;;
11588;SDS011;5850;51.360;12.362;2023-07-30T01:30:05;4.43;;;3.60;;
11588;SDS011;5850;51.360;12.362;2023-07-30T01:32:53;3.87;;;3.27;;
11588;SDS011;5850;51.360;12.362;2023-07-30T01:35:21;5.83;;;3.60;;
11588;SDS011;5850;51.360;12.362;2023-07-30T01:37:54;8.50;;;4.07;;
11588;SDS011;5850;51.360;12.362;2023-07-30T01:40:23;3.93;;;3.00;;
11588;SDS011;5850;51.360;12.362;2023-07-30T01:42:52;3.77;;;3.30;;
11588;SDS011;5850;51.360;12.362;2023-07-30T01:45:20;3.73;;;3.17;;
11588;SDS011;5850;51.360;12.362;2023-07-30T01:47:49;4.60;;;3.47;;
11588;SDS011;5850;51.360;12.362;2023-07-30T01:50:17;4.50;;;3.57;;
11588;SDS011;5850;51.360;12.362;2023-07-30T01:52:46;3.53;;;3.23;;
11588;SDS011;5850;51.360;12.362;2023-07-30T01:55:14;3.50;;;3.20;;
11588;SDS011;5850;51.360;12.362;2023-07-30T01:57:43;6.03;;;3.77;;
11588;SDS011;5850;51.360;12.362;2023-07-30T02:00:11;4.13;;;3.57;;
11588;SDS011;5850;51.360;12.362;2023-07-30T02:02:39;5.57;;;3.50;;
11588;SDS011;5850;51.360;12.362;2023-07-30T02:05:08;4.47;;;3.40;;
11588;SDS011;5850;51.360;12.362;2023-07-30T02:07:36;3.97;;;3.13;;
11588;SDS011;5850;51.360;12.362;2023-07-30T02:10:05;4.47;;;3.23;;
11588;SDS011;5850;51.360;12.362;2023-07-30T02:12:33;3.43;;;3.13;;
11588;SDS011;5850;51.360;12.362;2023-07-30T02:15:01;4.20;;;3.03;;
11588;SDS011;5850;51.360;12.362;2023-07-30T02:17:30;3.67;;;3.37;;
11588;SDS011;5850;51.360;12.362;2023-07-30T02:19:58;5.30;;;3.13;;
11588;SDS011;5850;51.360;12.362;2023-07-30T02:22:27;3.77;;;3.30;;
11588;SDS011;5850;51.360;12.362;2023-07-30T02:24:55;3.97;;;2.90;;
11588;SDS011;5850;51.360;12.362;2023-07-30T02:27:23;3.67;;;3.37;;
11588;SDS011;5850;51.360;12.362;2023-07-30T02:29:52;4.23;;;3.00;;
11588;SDS011;5850;51.360;12.362;2023-07-30T02:32:20;4.80;;;3.50;;
11588;SDS011;5850;51.360;12.362;2023-07-30T02:34:48;4.07;;;3.27;;
11588;SDS011;5850;51.360;12.362;2023-07-30T02:37:20;4.13;;;2.97;;
11588;SDS011;5850;51.360;12.362;2023-07-30T02:39:48;3.40;;;3.10;;
11588;SDS011;5850;51.360;12.362;2023-07-30T02:42:16;4.03;;;3.53;;
11588;SDS011;5850;51.360;12.362;2023-07-30T02:44:45;4.70;;;3.27;;
11588;SDS011;5850;51.360;12.362;2023-07-30T02:47:13;3.60;;;3.30;;
11588;SDS011;5850;51.360;12.362;2023-07-30T02:49:41;3.50;;;2.90;;
11588;SDS011;5850;51.360;12.362;2023-07-30T02:52:10;5.43;;;3.00;;
11588;SDS011;5850;51.360;12.362;2023-07-30T02:54:38;3.27;;;3.07;;
11588;SDS011;5850;51.360;12.362;2023-07-30T02:57:06;3.00;;;2.77;;
11588;SDS011;5850;51.360;12.362;2023-07-30T02:59:35;3.47;;;3.17;;
11588;SDS011;5850;51.360;12.362;2023-07-30T03:02:04;3.30;;;3.00;;
11588;SDS011;5850;51.360;12.362;2023-07-30T03:04:32;3.70;;;3.10;;
11588;SDS011;5850;51.360;12.362;2023-07-30T03:07:01;4.37;;;3.07;;
11588;SDS011;5850;51.360;12.362;2023-07-30T03:09:29;4.37;;;3.07;;
11588;SDS011;5850;51.360;12.362;2023-07-30T03:11:59;3.00;;;2.80;;
11588;SDS011;5850;51.360;12.362;2023-07-30T03:14:27;3.83;;;3.30;;
11588;SDS011;5850;51.360;12.362;2023-07-30T03:16:56;3.83;;;2.80;;
11588;SDS011;5850;51.360;12.362;2023-07-30T03:19:25;4.10;;;3.50;;
11588;SDS011;5850;51.360;12.362;2023-07-30T03:21:53;5.30;;;3.30;;
11588;SDS011;5850;51.360;12.362;2023-07-30T03:24:21;3.83;;;3.33;;
11588;SDS011;5850;51.360;12.362;2023-07-30T03:26:50;5.57;;;3.10;;
11588;SDS011;5850;51.360;12.362;2023-07-30T03:29:18;3.37;;;3.07;;
11588;SDS011;5850;51.360;12.362;2023-07-30T03:31:46;3.50;;;3.00;;
11588;SDS011;5850;51.360;12.362;2023-07-30T03:34:15;4.13;;;3.27;;
11588;SDS011;5850;51.360;12.362;2023-07-30T03:36:43;4.10;;;3.33;;
11588;SDS011;5850;51.360;12.362;2023-07-30T03:39:11;4.67;;;3.23;;
11588;SDS011;5850;51.360;12.362;2023-07-30T03:41:39;2.90;;;2.70;;
11588;SDS011;5850;51.360;12.362;2023-07-30T03:44:09;5.00;;;4.00;;
11588;SDS011;5850;51.360;12.362;2023-07-30T03:46:37;4.00;;;3.23;;
11588;SDS011;5850;51.360;12.362;2023-07-30T03:49:06;5.10;;;3.30;;
11588;SDS011;5850;51.360;12.362;2023-07-30T03:51:34;4.23;;;3.40;;
11588;SDS011;5850;51.360;12.362;2023-07-30T03:54:05;6.53;;;3.57;;
11588;SDS011;5850;51.360;12.362;2023-07-30T03:56:33;3.80;;;3.40;;
11588;SDS011;5850;51.360;12.362;2023-07-30T03:59:01;5.27;;;4.10;;
11588;SDS011;5850;51.360;12.362;2023-07-30T04:01:30;3.50;;;3.20;;
11588;SDS011;5850;51.360;12.362;2023-07-30T04:04:00;3.90;;;3.40;;
11588;SDS011;5850;51.360;12.362;2023-07-30T04:06:28;4.50;;;3.30;;
11588;SDS011;5850;51.360;12.362;2023-07-30T04:08:57;4.43;;;3.43;;
11588;SDS011;5850;51.360;12.362;2023-07-30T04:11:25;3.70;;;3.37;;
11588;SDS011;5850;51.360;12.362;2023-07-30T04:13:53;4.90;;;3.10;;
11588;SDS011;5850;51.360;12.362;2023-07-30T04:16:22;3.40;;;2.97;;
11588;SDS011;5850;51.360;12.362;2023-07-30T04:18:50;4.07;;;3.00;;
11588;SDS011;5850;51.360;12.362;2023-07-30T04:21:19;4.83;;;3.20;;
11588;SDS011;5850;51.360;12.362;2023-07-30T04:23:47;4.83;;;3.10;;
11588;SDS011;5850;51.360;12.362;2023-07-30T04:26:15;3.33;;;2.97;;
11588;SDS011;5850;51.360;12.362;2023-07-30T04:28:44;3.67;;;3.20;;
11588;SDS011;5850;51.360;12.362;2023-07-30T04:31:12;4.83;;;2.90;;
11588;SDS011;5850;51.360;12.362;2023-07-30T04:33:40;4.03;;;3.37;;
11588;SDS011;5850;51.360;12.362;2023-07-30T04:36:08;3.60;;;2.70;;
11588;SDS011;5850;51.360;12.362;2023-07-30T04:38:37;3.43;;;3.03;;
11588;SDS011;5850;51.360;12.362;2023-07-30T04:41:05;3.47;;;3.00;;
11588;SDS011;5850;51.360;12.362;2023-07-30T04:43:34;3.80;;;3.50;;
11588;SDS011;5850;51.360;12.362;2023-07-30T04:46:02;4.30;;;3.90;;
11588;SDS011;5850;51.360;12.362;2023-07-30T04:48:30;5.50;;;4.00;;
11588;SDS011;5850;51.360;12.362;2023-07-30T04:50:59;3.67;;;3.37;;
11588;SDS011;5850;51.360;12.362;2023-07-30T04:53:27;4.57;;;3.87;;
11588;SDS011;5850;51.360;12.362;2023-07-30T04:55:56;4.10;;;3.57;;
11588;SDS011;5850;51.360;12.362;2023-07-30T04:58:24;5.13;;;4.00;;
11588;SDS011;5850;51.360;12.362;2023-07-30T05:00:53;3.40;;;3.13;;
11588;SDS011;5850;51.360;12.362;2023-07-30T05:03:21;4.17;;;3.83;;
11588;SDS011;5850;51.360;12.362;2023-07-30T05:05:50;4.57;;;3.20;;
11588;SDS011;5850;51.360;12.362;2023-07-30T05:08:18;4.13;;;3.70;;
11588;SDS011;5850;51.360;12.362;2023-07-30T05:10:46;5.63;;;3.80;;
11588;SDS011;5850;51.360;12.362;2023-07-30T05:13:15;4.23;;;3.83;;
11588;SDS011;5850;51.360;12.362;2023-07-30T05:15:43;3.97;;;2.97;;
11588;SDS011;5850;51.360;12.362;2023-07-30T05:18:11;5.63;;;3.60;;
11588;SDS011;5850;51.360;12.362;2023-07-30T05:20:40;3.97;;;3.10;;
11588;SDS011;5850;51.360;12.362;2023-07-30T05:23:09;5.17;;;3.00;;
11588;SDS011;5850;51.360;12.362;2023-07-30T05:25:37;3.10;;;2.90;;
11588;SDS011;5850;51.360;12.362;2023-07-30T05:28:05;3.03;;;2.70;;
11588;SDS011;5850;51.360;12.362;2023-07-30T05:30:34;3.33;;;3.03;;
11588;SDS011;5850;51.360;12.362;2023-07-30T05:33:02;3.60;;;3.30;;
11588;SDS011;5850;51.360;12.362;2023-07-30T05:35:31;5.33;;;3.27;;
11588;SDS011;5850;51.360;12.362;2023-07-30T05:37:59;3.53;;;3.23;;
11588;SDS011;5850;51.360;12.362;2023-07-30T05:40:27;3.50;;;3.20;;
11588;SDS011;5850;51.360;12.362;2023-07-30T05:42:56;3.23;;;2.63;;
11588;SDS011;5850;51.360;12.362;2023-07-30T05:45:24;2.90;;;2.70;;
11588;SDS011;5850;51.360;12.362;2023-07-30T05:47:52;3.47;;;2.97;;
11588;SDS011;5850;51.360;12.362;2023-07-30T05:50:21;3.70;;;3.00;;
11588;SDS011;5850;51.360;12.362;2023-07-30T05:52:49;3.27;;;2.80;;
11588;SDS011;5850;51.360;12.362;2023-07-30T05:55:17;3.47;;;2.70;;
11588;SDS011;5850;51.360;12.362;2023-07-30T05:57:46;3.10;;;2.80;;
11588;SDS011;5850;51.360;12.362;2023-07-30T06:00:14;4.03;;;2.77;;
11588;SDS011;5850;51.360;12.362;2023-07-30T06:02:42;4.87;;;3.13;;
11588;SDS011;5850;51.360;12.362;2023-07-30T06:05:11;3.50;;;2.53;;
11588;SDS011;5850;51.360;12.362;2023-07-30T06:07:39;3.47;;;2.50;;
11588;SDS011;5850;51.360;12.362;2023-07-30T06:10:08;2.80;;;2.60;;
11588;SDS011;5850;51.360;12.362;2023-07-30T06:12:36;2.43;;;2.23;;
11588;SDS011;5850;51.360;12.362;2023-07-30T06:15:05;2.57;;;2.20;;
11588;SDS011;5850;51.360;12.362;2023-07-30T06:17:35;2.60;;;2.40;;
11588;SDS011;5850;51.360;12.362;2023-07-30T06:20:04;3.90;;;3.10;;
11588;SDS011;5850;51.360;12.362;2023-07-30T06:22:33;3.37;;;2.83;;
11588;SDS011;5850;51.360;12.362;2023-07-30T06:25:01;2.63;;;2.43;;
11588;SDS011;5850;51.360;12.362;2023-07-30T06:27:30;3.07;;;2.50;;
11588;SDS011;5850;51.360;12.362;2023-07-30T06:29:58;3.53;;;2.67;;
11588;SDS011;5850;51.360;12.362;2023-07-30T06:32:27;3.43;;;2.40;;
11588;SDS011;5850;51.360;12.362;2023-07-30T06:34:55;3.20;;;2.30;;
11588;SDS011;5850;51.360;12.362;2023-07-30T06:37:23;3.13;;;2.80;;
11588;SDS011;5850;51.360;12.362;2023-07-30T06:39:52;3.97;;;2.30;;
11588;SDS011;5850;51.360;12.362;2023-07-30T06:42:20;2.47;;;2.27;;
11588;SDS011;5850;51.360;12.362;2023-07-30T06:44:48;2.40;;;2.20;;
11588;SDS011;5850;51.360;12.362;2023-07-30T06:47:17;2.43;;;2.23;;
11588;SDS011;5850;51.360;12.362;2023-07-30T06:49:45;3.43;;;2.50;;
11588;SDS011;5850;51.360;12.362;2023-07-30T06:52:13;3.13;;;2.50;;
11588;SDS011;5850;51.360;12.362;2023-07-30T06:54:42;2.90;;;2.60;;
11588;SDS011;5850;51.360;12.362;2023-07-30T06:57:10;2.60;;;2.40;;
11588;SDS011;5850;51.360;12.362;2023-07-30T06:59:38;2.53;;;2.33;;
11588;SDS011;5850;51.360;12.362;2023-07-30T07:02:07;2.87;;;2.57;;
11588;SDS011;5850;51.360;12.362;2023-07-30T07:04:35;2.83;;;2.60;;
11588;SDS011;5850;51.360;12.362;2023-07-30T07:07:04;2.73;;;2.53;;
11588;SDS011;5850;51.360;12.362;2023-07-30T07:09:32;3.83;;;2.53;;
11588;SDS011;5850;51.360;12.362;2023-07-30T07:12:00;2.93;;;2.67;;
11588;SDS011;5850;51.360;12.362;2023-07-30T07:14:29;3.70;;;2.53;;
11588;SDS011;5850;51.360;12.362;2023-07-30T07:16:57;3.17;;;2.90;;
11588;SDS011;5850;51.360;12.362;2023-07-30T07:19:26;3.00;;;2.80;;
11588;SDS011;5850;51.360;12.362;2023-07-30T07:21:54;2.97;;;2.63;;
11588;SDS011;5850;51.360;12.362;2023-07-30T07:24:23;2.63;;;2.43;;
11588;SDS011;5850;51.360;12.362;2023-07-30T07:26:51;2.83;;;2.53;;
11588;SDS011;5850;51.360;12.362;2023-07-30T07:29:19;2.77;;;2.53;;
11588;SDS011;5850;51.360;12.362;2023-07-30T07:31:47;2.80;;;2.60;;
11588;SDS011;5850;51.360;12.362;2023-07-30T07:34:16;2.60;;;2.40;;
11588;SDS011;5850;51.360;12.362;2023-07-30T07:36:44;4.77;;;2.50;;
11588;SDS011;5850;51.360;12.362;2023-07-30T07:39:13;4.77;;;2.10;;
11588;SDS011;5850;51.360;12.362;2023-07-30T07:41:41;2.87;;;2.67;;
11588;SDS011;5850;51.360;12.362;2023-07-30T07:44:09;2.90;;;2.60;;
11588;SDS011;5850;51.360;12.362;2023-07-30T07:46:37;2.67;;;2.20;;
11588;SDS011;5850;51.360;12.362;2023-07-30T07:49:06;2.20;;;1.90;;
11588;SDS011;5850;51.360;12.362;2023-07-30T07:51:35;2.63;;;2.27;;
11588;SDS011;5850;51.360;12.362;2023-07-30T07:54:03;2.37;;;2.17;;
11588;SDS011;5850;51.360;12.362;2023-07-30T07:56:32;3.10;;;2.63;;
11588;SDS011;5850;51.360;12.362;2023-07-30T07:59:00;3.70;;;2.87;;
11588;SDS011;5850;51.360;12.362;2023-07-30T08:01:30;2.93;;;2.50;;
11588;SDS011;5850;51.360;12.362;2023-07-30T08:03:58;3.83;;;2.07;;
11588;SDS011;5850;51.360;12.362;2023-07-30T08:06:27;2.37;;;2.07;;
11588;SDS011;5850;51.360;12.362;2023-07-30T08:08:55;2.93;;;2.20;;
11588;SDS011;5850;51.360;12.362;2023-07-30T08:11:24;3.80;;;2.53;;
11588;SDS011;5850;51.360;12.362;2023-07-30T08:13:52;2.70;;;2.10;;
11588;SDS011;5850;51.360;12.362;2023-07-30T08:16:20;2.90;;;2.37;;
11588;SDS011;5850;51.360;12.362;2023-07-30T08:18:49;2.80;;;2.20;;
11588;SDS011;5850;51.360;12.362;2023-07-30T08:21:17;3.10;;;2.40;;
11588;SDS011;5850;51.360;12.362;2023-07-30T08:23:46;4.23;;;2.50;;
11588;SDS011;5850;51.360;12.362;2023-07-30T08:26:15;3.83;;;2.73;;
11588;SDS011;5850;51.360;12.362;2023-07-30T08:28:43;4.17;;;2.90;;
11588;SDS011;5850;51.360;12.362;2023-07-30T08:31:11;5.33;;;4.23;;
11588;SDS011;5850;51.360;12.362;2023-07-30T08:33:39;3.73;;;3.43;;
11588;SDS011;5850;51.360;12.362;2023-07-30T08:36:08;2.90;;;2.57;;
11588;SDS011;5850;51.360;12.362;2023-07-30T08:38:36;3.53;;;2.40;;
11588;SDS011;5850;51.360;12.362;2023-07-30T08:41:04;4.60;;;2.30;;
11588;SDS011;5850;51.360;12.362;2023-07-30T08:43:33;2.90;;;2.70;;
11588;SDS011;5850;51.360;12.362;2023-07-30T08:46:02;3.60;;;2.60;;
11588;SDS011;5850;51.360;12.362;2023-07-30T08:48:31;3.70;;;2.70;;
11588;SDS011;5850;51.360;12.362;2023-07-30T08:50:59;2.70;;;2.50;;
11588;SDS011;5850;51.360;12.362;2023-07-30T08:53:28;3.57;;;3.03;;
11588;SDS011;5850;51.360;12.362;2023-07-30T08:55:56;2.77;;;2.43;;
11588;SDS011;5850;51.360;12.362;2023-07-30T08:58:25;4.47;;;3.63;;
11588;SDS011;5850;51.360;12.362;2023-07-30T09:00:55;3.93;;;3.03;;
11588;SDS011;5850;51.360;12.362;2023-07-30T09:03:24;4.27;;;3.67;;
11588;SDS011;5850;51.360;12.362;2023-07-30T09:05:54;2.73;;;2.30;;
11588;SDS011;5850;51.360;12.362;2023-07-30T09:08:22;3.43;;;2.37;;
11588;SDS011;5850;51.360;12.362;2023-07-30T09:10:51;4.07;;;2.80;;
11588;SDS011;5850;51.360;12.362;2023-07-30T09:13:23;2.47;;;2.27;;
11588;SDS011;5850;51.360;12.362;2023-07-30T09:15:51;2.73;;;2.23;;
11588;SDS011;5850;51.360;12.362;2023-07-30T09:18:19;2.50;;;2.30;;
11588;SDS011;5850;51.360;12.362;2023-07-30T09:20:47;2.60;;;2.40;;
11588;SDS011;5850;51.360;12.362;2023-07-30T09:23:16;5.53;;;2.20;;
11588;SDS011;5850;51.360;12.362;2023-07-30T09:25:45;3.03;;;2.63;;
11588;SDS011;5850;51.360;12.362;2023-07-30T09:28:15;2.90;;;2.30;;
11588;SDS011;5850;51.360;12.362;2023-07-30T09:30:48;2.13;;;1.97;;
11588;SDS011;5850;51.360;12.362;2023-07-30T09:33:18;2.73;;;2.27;;
11588;SDS011;5850;51.360;12.362;2023-07-30T09:35:48;2.33;;;2.13;;
11588;SDS011;5850;51.360;12.362;2023-07-30T09:38:17;3.00;;;2.70;;
11588;SDS011;5850;51.360;12.362;2023-07-30T09:40:46;2.93;;;2.30;;
11588;SDS011;5850;51.360;12.362;2023-07-30T09:43:15;3.10;;;2.20;;
11588;SDS011;5850;51.360;12.362;2023-07-30T09:45:45;2.37;;;1.93;;
11588;SDS011;5850;51.360;12.362;2023-07-30T09:48:13;2.60;;;1.80;;
11588;SDS011;5850;51.360;12.362;2023-07-30T09:50:42;2.10;;;1.90;;
11588;SDS011;5850;51.360;12.362;2023-07-30T09:53:11;3.10;;;2.80;;
11588;SDS011;5850;51.360;12.362;2023-07-30T09:55:42;2.20;;;2.00;;
11588;SDS011;5850;51.360;12.362;2023-07-30T09:58:10;2.00;;;1.80;;
11588;SDS011;5850;51.360;12.362;2023-07-30T10:00:38;2.60;;;2.40;;
11588;SDS011;5850;51.360;12.362;2023-07-30T10:03:07;2.03;;;1.67;;
11588;SDS011;5850;51.360;12.362;2023-07-30T10:05:35;2.37;;;2.17;;
11588;SDS011;5850;51.360;12.362;2023-07-30T10:08:09;4.40;;;2.13;;
11588;SDS011;5850;51.360;12.362;2023-07-30T10:10:46;2.67;;;2.17;;
11588;SDS011;5850;51.360;12.362;2023-07-30T10:13:16;2.23;;;2.03;;
11588;SDS011;5850;51.360;12.362;2023-07-30T10:15:45;2.43;;;2.07;;
11588;SDS011;5850;51.360;12.362;2023-07-30T10:18:14;3.03;;;2.53;;
11588;SDS011;5850;51.360;12.362;2023-07-30T10:20:45;2.43;;;2.23;;
11588;SDS011;5850;51.360;12.362;2023-07-30T10:23:21;3.03;;;2.77;;
11588;SDS011;5850;51.360;12.362;2023-07-30T10:25:52;2.80;;;2.43;;
11588;SDS011;5850;51.360;12.362;2023-07-30T10:28:31;2.07;;;1.97;;
11588;SDS011;5850;51.360;12.362;2023-07-30T10:31:04;2.27;;;2.07;;
11588;SDS011;5850;51.360;12.362;2023-07-30T10:33:52;2.20;;;2.00;;
11588;SDS011;5850;51.360;12.362;2023-07-30T10:36:30;1.80;;;1.70;;
11588;SDS011;5850;51.360;12.362;2023-07-30T10:39:16;2.00;;;1.80;;
11588;SDS011;5850;51.360;12.362;2023-07-30T10:41:57;3.20;;;1.70;;
11588;SDS011;5850;51.360;12.362;2023-07-30T10:44:33;3.43;;;1.80;;
11588;SDS011;5850;51.360;12.362;2023-07-30T10:47:02;1.87;;;1.57;;
11588;SDS011;5850;51.360;12.362;2023-07-30T10:49:37;1.60;;;1.50;;
11588;SDS011;5850;51.360;12.362;2023-07-30T10:52:06;1.70;;;1.60;;
11588;SDS011;5850;51.360;12.362;2023-07-30T10:54:35;1.70;;;1.60;;
11588;SDS011;5850;51.360;12.362;2023-07-30T10:57:04;5.07;;;1.73;;
11588;SDS011;5850;51.360;12.362;2023-07-30T10:59:35;3.93;;;1.50;;
11588;SDS011;5850;51.360;12.362;2023-07-30T11:02:04;1.87;;;1.63;;
11588;SDS011;5850;51.360;12.362;2023-07-30T11:04:34;1.70;;;1.57;;
11588;SDS011;5850;51.360;12.362;2023-07-30T11:07:04;1.40;;;1.30;;
11588;SDS011;5850;51.360;12.362;2023-07-30T11:09:32;1.47;;;1.30;;
11588;SDS011;5850;51.360;12.362;2023-07-30T11:12:00;1.53;;;1.43;;
11588;SDS011;5850;51.360;12.362;2023-07-30T11:14:29;1.73;;;1.50;;
11588;SDS011;5850;51.360;12.362;2023-07-30T11:17:00;1.67;;;1.40;;
11588;SDS011;5850;51.360;12.362;2023-07-30T11:19:29;1.73;;;1.63;;
11588;SDS011;5850;51.360;12.362;2023-07-30T11:22:00;3.67;;;1.40;;
11588;SDS011;5850;51.360;12.362;2023-07-30T11:24:35;3.80;;;1.40;;
11588;SDS011;5850;51.360;12.362;2023-07-30T11:27:04;1.30;;;1.20;;
11588;SDS011;5850;51.360;12.362;2023-07-30T11:29:33;1.83;;;1.40;;
11588;SDS011;5850;51.360;12.362;2023-07-30T11:32:01;2.27;;;1.50;;
11588;SDS011;5850;51.360;12.362;2023-07-30T11:34:30;2.53;;;1.60;;
11588;SDS011;5850;51.360;12.362;2023-07-30T11:37:02;2.47;;;1.60;;
11588;SDS011;5850;51.360;12.362;2023-07-30T11:39:31;1.87;;;1.50;;
11588;SDS011;5850;51.360;12.362;2023-07-30T11:42:00;1.53;;;1.43;;
11588;SDS011;5850;51.360;12.362;2023-07-30T11:44:35;4.97;;;1.40;;
11588;SDS011;5850;51.360;12.362;2023-07-30T11:47:05;2.70;;;1.53;;
11588;SDS011;5850;51.360;12.362;2023-07-30T11:49:35;2.33;;;1.40;;
11588;SDS011;5850;51.360;12.362;2023-07-30T11:52:04;1.57;;;1.40;;
11588;SDS011;5850;51.360;12.362;2023-07-30T11:54:36;2.30;;;1.43;;
11588;SDS011;5850;51.360;12.362;2023-07-30T11:57:05;2.13;;;1.30;;
11588;SDS011;5850;51.360;12.362;2023-07-30T11:59:33;1.47;;;1.37;;
11588;SDS011;5850;51.360;12.362;2023-07-30T12:02:02;1.53;;;1.20;;
11588;SDS011;5850;51.360;12.362;2023-07-30T12:04:31;1.30;;;1.20;;
11588;SDS011;5850;51.360;12.362;2023-07-30T12:07:24;1.37;;;1.23;;
11588;SDS011;5850;51.360;12.362;2023-07-30T12:09:52;4.27;;;1.83;;
11588;SDS011;5850;51.360;12.362;2023-07-30T12:12:24;2.20;;;1.20;;
11588;SDS011;5850;51.360;12.362;2023-07-30T12:14:54;1.30;;;1.20;;
11588;SDS011;5850;51.360;12.362;2023-07-30T12:17:22;2.40;;;1.40;;
11588;SDS011;5850;51.360;12.362;2023-07-30T12:19:50;2.40;;;1.53;;
11588;SDS011;5850;51.360;12.362;2023-07-30T12:22:19;4.00;;;1.30;;
11588;SDS011;5850;51.360;12.362;2023-07-30T12:24:47;2.70;;;1.37;;
11588;SDS011;5850;51.360;12.362;2023-07-30T12:27:15;1.23;;;1.20;;
11588;SDS011;5850;51.360;12.362;2023-07-30T12:29:43;1.33;;;1.23;;
11588;SDS011;5850;51.360;12.362;2023-07-30T12:32:12;1.53;;;1.30;;
11588;SDS011;5850;51.360;12.362;2023-07-30T12:34:40;1.37;;;1.27;;
11588;SDS011;5850;51.360;12.362;2023-07-30T12:37:14;1.43;;;1.33;;
11588;SDS011;5850;51.360;12.362;2023-07-30T12:39:42;1.63;;;1.30;;
11588;SDS011;5850;51.360;12.362;2023-07-30T12:42:10;1.80;;;1.40;;
11588;SDS011;5850;51.360;12.362;2023-07-30T12:44:38;1.40;;;1.30;;
11588;SDS011;5850;51.360;12.362;2023-07-30T12:47:06;1.93;;;1.50;;
11588;SDS011;5850;51.360;12.362;2023-07-30T12:49:35;2.70;;;1.30;;
11588;SDS011;5850;51.360;12.362;2023-07-30T12:52:04;1.40;;;1.30;;
11588;SDS011;5850;51.360;12.362;2023-07-30T12:54:32;1.97;;;1.60;;
11588;SDS011;5850;51.360;12.362;2023-07-30T12:57:00;2.67;;;1.80;;
11588;SDS011;5850;51.360;12.362;2023-07-30T12:59:28;2.10;;;1.77;;
11588;SDS011;5850;51.360;12.362;2023-07-30T13:01:57;1.70;;;1.50;;
11588;SDS011;5850;51.360;12.362;2023-07-30T13:04:26;2.53;;;2.07;;
11588;SDS011;5850;51.360;12.362;2023-07-30T13:06:54;2.13;;;1.77;;
11588;SDS011;5850;51.360;12.362;2023-07-30T13:09:22;4.77;;;1.87;;
11588;SDS011;5850;51.360;12.362;2023-07-30T13:11:51;2.23;;;1.90;;
11588;SDS011;5850;51.360;12.362;2023-07-30T13:14:19;2.10;;;2.00;;
11588;SDS011;5850;51.360;12.362;2023-07-30T13:16:47;3.53;;;2.20;;
11588;SDS011;5850;51.360;12.362;2023-07-30T13:19:16;2.87;;;2.00;;
11588;SDS011;5850;51.360;12.362;2023-07-30T13:21:44;3.47;;;2.30;;
11588;SDS011;5850;51.360;12.362;2023-07-30T13:24:12;3.47;;;2.17;;
11588;SDS011;5850;51.360;12.362;2023-07-30T13:26:40;4.03;;;2.43;;
11588;SDS011;5850;51.360;12.362;2023-07-30T13:29:09;2.77;;;2.47;;
11588;SDS011;5850;51.360;12.362;2023-07-30T13:31:37;3.07;;;2.23;;
11588;SDS011;5850;51.360;12.362;2023-07-30T13:34:06;2.50;;;2.23;;
11588;SDS011;5850;51.360;12.362;2023-07-30T13:36:34;3.60;;;2.20;;
11588;SDS011;5850;51.360;12.362;2023-07-30T13:39:02;2.53;;;2.33;;
11588;SDS011;5850;51.360;12.362;2023-07-30T13:41:31;7.03;;;2.90;;
11588;SDS011;5850;51.360;12.362;2023-07-30T13:43:59;3.23;;;2.37;;
11588;SDS011;5850;51.360;12.362;2023-07-30T13:46:27;3.07;;;2.77;;
11588;SDS011;5850;51.360;12.362;2023-07-30T13:48:56;4.63;;;2.67;;
11588;SDS011;5850;51.360;12.362;2023-07-30T13:51:24;3.63;;;2.50;;
11588;SDS011;5850;51.360;12.362;2023-07-30T13:54:01;2.30;;;2.00;;
11588;SDS011;5850;51.360;12.362;2023-07-30T13:56:29;2.47;;;2.27;;
11588;SDS011;5850;51.360;12.362;2023-07-30T13:58:57;3.10;;;2.20;;
11588;SDS011;5850;51.360;12.362;2023-07-30T14:01:26;3.20;;;2.90;;
11588;SDS011;5850;51.360;12.362;2023-07-30T14:03:55;10.40;;;3.53;;
11588;SDS011;5850;51.360;12.362;2023-07-30T14:06:23;5.27;;;3.23;;
11588;SDS011;5850;51.360;12.362;2023-07-30T14:08:51;4.00;;;2.93;;
11588;SDS011;5850;51.360;12.362;2023-07-30T14:11:20;3.10;;;2.70;;
11588;SDS011;5850;51.360;12.362;2023-07-30T14:13:48;2.60;;;2.40;;
11588;SDS011;5850;51.360;12.362;2023-07-30T14:16:16;2.50;;;2.30;;
11588;SDS011;5850;51.360;12.362;2023-07-30T14:18:45;5.10;;;2.37;;
11588;SDS011;5850;51.360;12.362;2023-07-30T14:21:13;4.63;;;3.03;;
11588;SDS011;5850;51.360;12.362;2023-07-30T14:23:42;3.33;;;2.40;;
11588;SDS011;5850;51.360;12.362;2023-07-30T14:26:10;3.83;;;2.10;;
11588;SDS011;5850;51.360;12.362;2023-07-30T14:28:38;2.77;;;2.00;;
11588;SDS011;5850;51.360;12.362;2023-07-30T14:31:06;5.80;;;2.00;;
11588;SDS011;5850;51.360;12.362;2023-07-30T14:33:34;4.93;;;2.10;;
11588;SDS011;5850;51.360;12.362;2023-07-30T14:36:03;3.90;;;2.17;;
11588;SDS011;5850;51.360;12.362;2023-07-30T14:38:32;3.70;;;1.80;;
11588;SDS011;5850;51.360;12.362;2023-07-30T14:41:01;3.10;;;2.03;;
11588;SDS011;5850;51.360;12.362;2023-07-30T14:43:29;3.30;;;2.00;;
11588;SDS011;5850;51.360;12.362;2023-07-30T14:45:57;4.43;;;2.40;;
11588;SDS011;5850;51.360;12.362;2023-07-30T14:48:25;2.73;;;2.20;;
11588;SDS011;5850;51.360;12.362;2023-07-30T14:50:54;4.13;;;2.50;;
11588;SDS011;5850;51.360;12.362;2023-07-30T14:53:23;2.53;;;2.27;;
11588;SDS011;5850;51.360;12.362;2023-07-30T14:55:51;3.93;;;2.10;;
11588;SDS011;5850;51.360;12.362;2023-07-30T14:58:20;6.10;;;2.13;;